createdAt,value
2023-02-01T00:14:00.871Z,5
2023-02-01T00:29:35.243Z,5
2023-02-01T00:45:09.629Z,5
2023-02-01T01:00:44.324Z,5
2023-02-01T01:16:18.979Z,4.9
2023-02-01T01:31:53.708Z,4.9
2023-02-01T01:47:28.185Z,4.7
2023-02-01T02:03:02.592Z,4.7
2023-02-01T02:18:37.078Z,4.7
2023-02-01T02:34:11.423Z,4.7
2023-02-01T02:49:45.784Z,4.7
2023-02-01T03:05:20.158Z,4.7
2023-02-01T03:20:54.523Z,4.7
2023-02-01T03:36:28.897Z,4.5
2023-02-01T03:52:03.672Z,4.5
2023-02-01T04:07:38.160Z,4.6
2023-02-01T04:23:12.855Z,4.5
2023-02-01T04:38:47.226Z,4.5
2023-02-01T04:54:21.601Z,4.5
2023-02-01T05:09:55.971Z,4.5
2023-02-01T05:25:30.393Z,4.3
2023-02-01T05:41:04.774Z,4.4
2023-02-01T05:56:39.266Z,4.3
2023-02-01T06:12:13.670Z,4.4
2023-02-01T06:27:48.027Z,4.5
2023-02-01T06:43:22.403Z,4.5
2023-02-01T06:58:56.800Z,4.7
2023-02-01T07:14:31.170Z,4.7
2023-02-01T07:30:05.542Z,4.7
2023-02-01T07:45:48.728Z,4.9
2023-02-01T08:01:23.844Z,5.3
2023-02-01T08:16:58.510Z,5.5
2023-02-01T08:32:32.999Z,5.3
2023-02-01T08:48:07.380Z,5.5
2023-02-01T09:03:42.061Z,5.5
2023-02-01T09:19:29.240Z,5.6
2023-02-01T09:35:03.642Z,5.6
2023-02-01T09:50:38.045Z,5.9
2023-02-01T10:06:12.424Z,6.1
2023-02-01T10:21:46.813Z,6.5
2023-02-01T10:37:21.279Z,6.3
2023-02-01T10:52:55.828Z,6.5
2023-02-01T11:08:30.262Z,6.9
2023-02-01T11:24:04.736Z,7.1
2023-02-01T11:39:39.307Z,7.2
2023-02-01T11:55:13.757Z,7.2
2023-02-01T12:10:48.423Z,7.3
2023-02-01T12:26:22.984Z,7.3
2023-02-01T12:41:57.416Z,7
2023-02-01T12:57:31.829Z,7
2023-02-01T13:13:06.226Z,7
2023-02-01T13:28:43.400Z,6.8
2023-02-01T13:44:17.830Z,6.6
2023-02-01T13:59:52.292Z,6.8
2023-02-01T14:15:28.666Z,6.7
2023-02-01T14:31:03.635Z,6.8
2023-02-01T14:46:38.593Z,6.9
2023-02-01T15:02:13.049Z,6.7
2023-02-01T15:17:47.439Z,6.6
2023-02-01T15:33:21.925Z,6.5
2023-02-01T15:48:56.499Z,6.2
2023-02-01T16:04:30.921Z,5.8
2023-02-01T16:20:05.490Z,5.9
2023-02-01T16:35:39.890Z,5.8
2023-02-01T16:51:14.259Z,5.8
2023-02-01T17:06:48.724Z,6
2023-02-01T17:22:23.044Z,2.7
2023-02-01T17:37:57.438Z,1.5
2023-02-01T17:53:31.763Z,1.1
2023-02-01T18:09:06.966Z,1.3
2023-02-01T18:24:41.295Z,1.7
2023-02-01T18:40:15.619Z,2.2
2023-02-01T18:55:50.611Z,2.3
2023-02-01T19:11:24.987Z,2.5
2023-02-01T19:26:59.716Z,2.8
2023-02-01T19:42:34.140Z,2.9
2023-02-01T19:58:08.608Z,3.1
2023-02-01T20:13:42.229Z,3.4
2023-02-01T20:29:17.591Z,3.6
2023-02-01T20:44:51.940Z,3.5
2023-02-01T21:00:26.295Z,3.5
2023-02-01T21:16:01.030Z,3.5
2023-02-01T21:31:35.694Z,3.3
2023-02-01T21:47:10.490Z,3.2
2023-02-01T22:02:45.133Z,3.2
2023-02-01T22:18:19.510Z,3.3
2023-02-01T22:33:53.824Z,3.3
2023-02-01T22:49:28.163Z,3.5
2023-02-01T23:05:02.481Z,3.6
2023-02-01T23:20:36.826Z,3.5
2023-02-01T23:36:11.161Z,3.5
2023-02-01T23:51:45.533Z,3.4
